createdAt,value
2022-10-14T00:01:25.470Z,11.40
2022-10-14T00:03:53.772Z,11.30
2022-10-14T00:06:27.185Z,11.20
2022-10-14T00:09:02.764Z,11.00
2022-10-14T00:11:32.162Z,10.90
2022-10-14T00:14:02.224Z,10.80
2022-10-14T00:16:35.720Z,10.70
2022-10-14T00:19:04.253Z,10.60
2022-10-14T00:21:33.604Z,10.40
2022-10-14T00:24:01.616Z,10.40
2022-10-14T00:26:40.731Z,10.50
2022-10-14T00:29:13.479Z,10.60
2022-10-14T00:31:44.092Z,10.60
2022-10-14T00:34:16.323Z,10.60
2022-10-14T00:36:45.234Z,10.70
2022-10-14T00:39:12.600Z,10.70
2022-10-14T00:41:42.557Z,10.70
2022-10-14T00:44:18.349Z,10.60
2022-10-14T00:46:49.407Z,10.70
2022-10-14T00:49:35.876Z,10.80
2022-10-14T00:52:06.570Z,10.90
2022-10-14T00:54:38.577Z,10.80
2022-10-14T00:57:07.687Z,10.80
2022-10-14T01:03:27.027Z,10.60
2022-10-14T01:06:13.378Z,10.50
2022-10-14T01:09:06.172Z,10.50
2022-10-14T01:12:00.149Z,10.40
2022-10-14T01:14:55.555Z,10.30
2022-10-14T01:17:44.550Z,10.00
2022-10-14T01:20:50.248Z,10.00
2022-10-14T01:23:48.644Z,10.10
2022-10-14T01:26:34.421Z,10.10
2022-10-14T01:29:21.488Z,10.20
2022-10-14T01:31:59.900Z,10.30
2022-10-14T01:34:41.478Z,10.30
2022-10-14T01:37:18.667Z,10.30
2022-10-14T01:39:51.424Z,10.40
2022-10-14T01:42:23.091Z,10.30
2022-10-14T01:44:58.134Z,10.10
2022-10-14T01:47:28.947Z,9.90
2022-10-14T01:50:04.155Z,10.00
2022-10-14T01:52:40.164Z,10.10
2022-10-14T01:55:13.848Z,9.90
2022-10-14T01:57:43.465Z,9.90
2022-10-14T02:00:12.062Z,10.00
2022-10-14T02:02:38.898Z,10.00
2022-10-14T02:05:14.861Z,10.00
2022-10-14T02:07:49.537Z,10.10
2022-10-14T02:10:52.035Z,10.10
2022-10-14T02:13:46.405Z,10.20
2022-10-14T02:16:39.065Z,10.30
2022-10-14T02:19:22.001Z,10.50
2022-10-14T02:21:56.303Z,10.50
2022-10-14T02:24:31.781Z,10.60
2022-10-14T02:27:02.797Z,10.90
2022-10-14T02:29:31.923Z,11.10
2022-10-14T02:32:01.325Z,10.80
2022-10-14T02:34:28.241Z,10.90
2022-10-14T02:36:56.067Z,11.10
2022-10-14T02:39:30.078Z,11.00
2022-10-14T02:41:58.213Z,11.00
2022-10-14T02:44:26.695Z,10.80
2022-10-14T02:46:56.649Z,10.80
2022-10-14T02:49:26.840Z,10.80
2022-10-14T02:51:54.119Z,10.70
2022-10-14T02:54:23.352Z,10.90
2022-10-14T02:56:50.395Z,10.90
2022-10-14T02:59:17.408Z,10.90
2022-10-14T03:01:46.319Z,10.70
2022-10-14T03:04:14.905Z,10.70
2022-10-14T03:06:43.051Z,10.80
2022-10-14T03:09:10.635Z,10.50
2022-10-14T03:11:38.782Z,10.30
2022-10-14T03:14:07.245Z,10.40
2022-10-14T03:16:34.107Z,10.40
2022-10-14T03:19:01.495Z,10.30
2022-10-14T03:21:28.901Z,10.30
2022-10-14T03:23:57.837Z,10.30
2022-10-14T03:26:30.045Z,10.30
2022-10-14T03:28:59.630Z,10.20
2022-10-14T03:31:26.407Z,10.20
2022-10-14T03:33:54.051Z,10.30
2022-10-14T03:36:21.900Z,10.30
2022-10-14T03:38:50.458Z,10.20
2022-10-14T03:41:19.787Z,10.10
2022-10-14T03:43:49.548Z,9.90
2022-10-14T03:46:17.727Z,9.60
2022-10-14T03:48:50.094Z,9.80
2022-10-14T03:51:17.553Z,9.80
2022-10-14T03:53:44.860Z,9.70
2022-10-14T03:56:12.915Z,9.90
2022-10-14T03:58:41.633Z,10.00
2022-10-14T04:01:09.991Z,10.20
2022-10-14T04:03:38.661Z,10.20
2022-10-14T04:06:05.989Z,10.40
2022-10-14T04:08:33.097Z,10.30
2022-10-14T04:11:02.688Z,10.30
2022-10-14T04:13:30.004Z,10.00
2022-10-14T04:18:43.971Z,9.80
2022-10-14T04:21:12.711Z,9.60
2022-10-14T04:23:39.913Z,9.60
2022-10-14T04:26:09.481Z,9.70
2022-10-14T04:28:37.153Z,9.90
2022-10-14T04:31:05.724Z,10.10
2022-10-14T04:33:33.203Z,10.10
2022-10-14T04:36:02.245Z,10.20
2022-10-14T04:38:31.248Z,10.20
2022-10-14T04:40:58.934Z,10.40
2022-10-14T04:43:26.322Z,10.30
2022-10-14T04:45:55.910Z,10.40
2022-10-14T04:48:31.953Z,10.40
2022-10-14T04:51:03.397Z,10.60
2022-10-14T04:53:32.105Z,10.60
2022-10-14T04:55:59.969Z,10.60
2022-10-14T05:01:35.315Z,10.70
2022-10-14T05:04:10.479Z,10.60
2022-10-14T05:06:38.945Z,10.40
2022-10-14T05:09:07.017Z,10.60
2022-10-14T05:11:37.900Z,10.50
2022-10-14T05:14:06.762Z,10.70
2022-10-14T05:16:34.139Z,10.70
2022-10-14T05:19:02.390Z,10.90
2022-10-14T05:21:29.217Z,10.60
2022-10-14T05:24:00.891Z,10.50
2022-10-14T05:26:27.694Z,10.50
2022-10-14T05:28:57.829Z,10.60
2022-10-14T05:31:27.023Z,10.50
2022-10-14T05:33:56.629Z,10.70
2022-10-14T05:36:23.808Z,10.80
2022-10-14T05:38:50.971Z,10.70
2022-10-14T05:41:20.820Z,10.60
2022-10-14T05:44:00.397Z,10.70
2022-10-14T05:46:27.678Z,10.70
2022-10-14T05:48:56.628Z,10.70
2022-10-14T05:54:07.923Z,10.70
2022-10-14T05:59:17.405Z,10.80
2022-10-14T06:01:44.805Z,10.90
2022-10-14T06:04:22.803Z,11.10
2022-10-14T06:06:52.457Z,11.30
2022-10-14T06:09:24.188Z,11.10
2022-10-14T06:11:52.576Z,11.20
2022-10-14T06:17:01.583Z,11.30
2022-10-14T06:22:12.195Z,11.10
2022-10-14T06:27:16.563Z,11.20
2022-10-14T06:29:44.310Z,11.30
2022-10-14T06:32:11.811Z,11.20
2022-10-14T06:42:53.715Z,11.20
2022-10-14T06:53:22.401Z,11.40
2022-10-14T06:56:04.255Z,11.30
2022-10-14T06:58:35.900Z,11.30
2022-10-14T07:01:08.420Z,11.10
2022-10-14T07:06:26.117Z,11.00
2022-10-14T07:08:58.856Z,11.20
2022-10-14T07:11:32.344Z,11.20
2022-10-14T07:14:03.233Z,11.10
2022-10-14T07:16:34.717Z,11.30
2022-10-14T07:19:09.528Z,11.50
2022-10-14T07:21:38.808Z,11.40
2022-10-14T07:24:16.245Z,11.70
2022-10-14T07:26:43.948Z,12.10
2022-10-14T07:29:18.461Z,13.50
2022-10-14T07:31:48.733Z,15.30
2022-10-14T07:39:39.911Z,19.50
2022-10-14T07:42:10.016Z,20.80
2022-10-14T07:44:42.592Z,21.90
2022-10-14T07:47:11.979Z,22.80
2022-10-14T07:49:48.538Z,23.20
2022-10-14T08:14:09.775Z,24.60
2022-10-14T08:16:39.313Z,24.50
2022-10-14T08:27:14.432Z,25.10
2022-10-14T08:32:18.390Z,26.60
2022-10-14T08:37:21.444Z,27.40
2022-10-14T08:45:17.790Z,24.80
2022-10-14T08:50:37.794Z,23.10
2022-10-14T09:01:13.526Z,21.60
2022-10-14T09:06:30.223Z,20.70
2022-10-14T09:09:08.996Z,20.30
2022-10-14T09:11:45.672Z,19.70
2022-10-14T09:14:25.683Z,19.20
2022-10-14T09:17:01.005Z,19.00
2022-10-14T09:19:38.579Z,19.20
2022-10-14T09:22:26.997Z,19.10
2022-10-14T09:24:55.401Z,18.90
2022-10-14T09:27:25.111Z,19.00
2022-10-14T09:30:05.499Z,18.90
2022-10-14T09:33:01.115Z,18.70
2022-10-14T09:35:41.405Z,18.20
2022-10-14T09:38:17.056Z,18.30
2022-10-14T09:40:53.175Z,18.60
2022-10-14T09:43:22.601Z,18.30
2022-10-14T09:46:02.585Z,17.90
2022-10-14T09:48:52.546Z,17.80
2022-10-14T09:51:27.263Z,17.90
2022-10-14T09:54:04.164Z,17.90
2022-10-14T09:56:42.191Z,18.20
2022-10-14T09:59:24.532Z,18.10
2022-10-14T10:02:38.926Z,18.10
2022-10-14T10:05:32.337Z,18.20
2022-10-14T10:08:23.845Z,18.10
2022-10-14T10:11:05.415Z,17.90
2022-10-14T10:13:44.068Z,18.10
2022-10-14T10:16:31.653Z,18.20
2022-10-14T10:19:23.809Z,18.30
2022-10-14T10:21:52.076Z,18.30
2022-10-14T10:24:26.005Z,18.30
2022-10-14T10:27:01.576Z,18.30
2022-10-14T10:29:34.990Z,18.50
2022-10-14T10:32:20.483Z,18.80
2022-10-14T10:35:12.449Z,18.70
2022-10-14T10:38:02.673Z,18.70
2022-10-14T10:40:40.307Z,18.80
2022-10-14T10:43:23.076Z,18.80
2022-10-14T10:46:29.347Z,18.80
2022-10-14T10:49:19.474Z,18.70
2022-10-14T10:52:00.223Z,18.50
2022-10-14T10:55:06.884Z,18.50
2022-10-14T10:58:04.770Z,18.70
2022-10-14T11:01:00.574Z,18.80
2022-10-14T11:04:13.589Z,18.80
2022-10-14T11:07:05.103Z,19.10
2022-10-14T11:10:34.354Z,19.00
2022-10-14T11:13:20.978Z,18.80
2022-10-14T11:16:06.091Z,18.80
2022-10-14T11:18:54.212Z,19.00
2022-10-14T11:21:45.853Z,18.90
2022-10-14T11:31:13.760Z,19.20
2022-10-14T11:34:12.023Z,19.20
2022-10-14T11:37:08.929Z,19.20
2022-10-14T11:40:03.911Z,19.20
2022-10-14T11:42:39.860Z,19.20
2022-10-14T11:45:45.600Z,19.20
2022-10-14T11:48:34.328Z,19.30
2022-10-14T11:52:10.865Z,19.10
2022-10-14T11:54:49.402Z,19.20
2022-10-14T11:57:30.892Z,19.40
2022-10-14T12:00:22.724Z,19.40
2022-10-14T12:03:22.820Z,19.40
2022-10-14T12:06:31.903Z,19.30
2022-10-14T12:09:47.180Z,19.10
2022-10-14T12:12:18.001Z,19.10
2022-10-14T12:14:51.111Z,19.30
2022-10-14T12:17:41.337Z,19.40
2022-10-14T12:20:37.632Z,19.40
2022-10-14T12:23:11.943Z,19.40
2022-10-14T12:25:57.207Z,19.70
2022-10-14T12:28:27.559Z,19.80
2022-10-14T12:31:28.950Z,20.20
2022-10-14T12:34:35.069Z,20.30
2022-10-14T12:37:38.801Z,20.10
2022-10-14T12:40:08.585Z,20.00
2022-10-14T12:42:59.221Z,19.90
2022-10-14T12:45:35.172Z,20.30
2022-10-14T12:48:23.945Z,20.70
2022-10-14T12:51:19.630Z,20.90
2022-10-14T12:54:12.079Z,21.10
2022-10-14T12:59:56.587Z,21.10
2022-10-14T13:02:39.468Z,21.10
2022-10-14T13:05:10.854Z,21.30
2022-10-14T13:07:47.022Z,21.20
2022-10-14T13:10:30.153Z,21.20
2022-10-14T13:15:53.094Z,20.50
2022-10-14T13:18:29.918Z,20.00
2022-10-14T13:20:57.831Z,19.70
2022-10-14T13:23:50.401Z,19.40
2022-10-14T13:27:01.675Z,19.20
2022-10-14T13:29:42.089Z,19.00
2022-10-14T13:32:47.699Z,18.90
2022-10-14T13:35:32.520Z,18.70
2022-10-14T13:38:09.942Z,18.50
2022-10-14T13:40:45.877Z,18.50
2022-10-14T13:43:33.342Z,18.50
2022-10-14T13:46:21.233Z,18.60
2022-10-14T13:54:20.365Z,18.40
2022-10-14T13:59:43.687Z,18.20
2022-10-14T14:13:06.782Z,18.40
2022-10-14T14:15:35.739Z,18.30
2022-10-14T14:18:07.744Z,18.10
2022-10-14T14:20:35.702Z,17.90
2022-10-14T14:23:04.533Z,17.60
2022-10-14T14:25:46.482Z,17.70
2022-10-14T14:28:19.090Z,17.70
2022-10-14T14:33:35.273Z,17.40
2022-10-14T14:36:18.088Z,17.30
2022-10-14T14:39:01.849Z,17.50
2022-10-14T14:41:32.062Z,17.80
2022-10-14T14:44:24.466Z,18.10
2022-10-14T14:46:55.907Z,17.90
2022-10-14T14:49:32.013Z,17.90
2022-10-14T14:52:00.436Z,17.70
2022-10-14T14:54:32.705Z,17.50
2022-10-14T14:57:10.860Z,17.40
2022-10-14T14:59:43.664Z,17.50
2022-10-14T15:02:18.607Z,17.30
2022-10-14T15:04:49.255Z,17.30
2022-10-14T15:07:21.697Z,17.10
2022-10-14T15:10:22.950Z,17.20
2022-10-14T15:12:57.241Z,17.10
2022-10-14T15:15:26.726Z,16.90
2022-10-14T15:18:18.924Z,16.90
2022-10-14T15:20:59.236Z,16.90
2022-10-14T15:23:50.671Z,16.90
2022-10-14T15:34:25.938Z,17.20
2022-10-14T15:47:35.665Z,17.00
2022-10-14T15:50:09.548Z,16.90
2022-10-14T15:52:36.593Z,16.80
2022-10-14T15:55:17.203Z,16.70
2022-10-14T15:57:44.223Z,16.60
2022-10-14T16:00:18.160Z,16.50
2022-10-14T16:02:57.201Z,16.40
2022-10-14T16:05:29.844Z,16.30
2022-10-14T16:08:01.534Z,16.20
2022-10-14T16:10:33.583Z,16.10
2022-10-14T16:13:05.723Z,15.90
2022-10-14T16:15:53.360Z,15.80
2022-10-14T16:18:25.038Z,15.80
2022-10-14T16:20:54.532Z,15.70
2022-10-14T16:23:33.337Z,15.60
2022-10-14T16:26:00.734Z,15.40
2022-10-14T16:28:28.485Z,15.20
2022-10-14T16:31:03.054Z,15.20
2022-10-14T16:33:33.023Z,15.30
2022-10-14T16:41:19.766Z,15.10
2022-10-14T16:43:49.977Z,15.20
2022-10-14T16:46:18.539Z,15.10
2022-10-14T16:48:46.061Z,15.00
2022-10-14T16:51:16.076Z,14.90
2022-10-14T17:35:07.535Z,14.20
2022-10-14T18:00:18.321Z,14.20
2022-10-14T18:37:52.870Z,13.30
2022-10-14T18:45:41.608Z,13.30
2022-10-14T18:56:21.803Z,13.20
2022-10-14T19:01:25.773Z,13.20
2022-10-14T19:06:29.364Z,13.10
2022-10-14T19:08:56.690Z,13.00
2022-10-14T19:11:25.861Z,12.90
2022-10-14T19:13:58.126Z,12.80
2022-10-14T19:21:43.804Z,12.90
2022-10-14T19:37:34.304Z,12.30
2022-10-14T19:48:01.582Z,12.10
2022-10-14T20:01:18.713Z,12.30
2022-10-14T20:03:52.097Z,12.40
2022-10-14T20:09:21.565Z,12.20
2022-10-14T20:11:50.364Z,12.10
2022-10-14T20:14:19.173Z,11.80
2022-10-14T20:24:53.313Z,11.80
2022-10-14T20:35:25.258Z,11.70
2022-10-14T20:37:52.350Z,11.80
2022-10-14T20:40:21.560Z,11.80
2022-10-14T20:45:33.244Z,11.70
2022-10-14T20:48:01.155Z,11.70
2022-10-14T20:50:30.211Z,11.80
2022-10-14T20:58:31.676Z,11.80
2022-10-14T21:14:25.349Z,12.30
2022-10-14T21:17:00.998Z,12.20
2022-10-14T21:30:14.073Z,12.10
2022-10-14T21:32:42.160Z,12.10
2022-10-14T21:35:09.660Z,12.10
2022-10-14T21:37:37.655Z,12.10
2022-10-14T21:56:19.238Z,12.10
2022-10-14T21:58:52.361Z,12.10
2022-10-14T22:01:28.616Z,12.00
2022-10-14T22:04:01.708Z,12.10
2022-10-14T22:09:12.819Z,12.00
2022-10-14T22:11:41.717Z,12.00
2022-10-14T22:14:24.108Z,12.00
2022-10-14T22:16:52.805Z,11.80
2022-10-14T22:19:20.179Z,11.90
2022-10-14T22:21:51.156Z,11.90
2022-10-14T22:24:19.908Z,12.00
2022-10-14T22:26:50.936Z,11.80
2022-10-14T22:29:19.343Z,11.80
2022-10-14T22:31:57.673Z,11.90
2022-10-14T22:34:26.208Z,11.80
2022-10-14T22:36:55.751Z,11.80
2022-10-14T22:39:24.991Z,11.80
2022-10-14T22:41:54.726Z,11.80
2022-10-14T22:44:22.317Z,11.80
2022-10-14T22:46:49.391Z,11.80
2022-10-14T22:52:07.413Z,11.80
2022-10-14T22:54:38.858Z,11.70
2022-10-14T22:57:06.098Z,11.80
2022-10-14T22:59:33.608Z,11.80
2022-10-14T23:02:00.827Z,11.90
2022-10-14T23:04:31.683Z,11.90
2022-10-14T23:07:03.073Z,11.90
2022-10-14T23:12:02.229Z,11.90
2022-10-14T23:17:07.699Z,12.10
2022-10-14T23:24:53.228Z,12.40
2022-10-14T23:27:23.149Z,12.40
2022-10-14T23:35:14.418Z,12.60
2022-10-14T23:37:43.439Z,12.60
2022-10-14T23:56:24.565Z,12.80
